Time;durP1;ratioP1;P1;durP2;ratioP2;P2;SDS_P1;SDS_P2;PMS_P1;PMS_P2;Temp;Humidity;BMP_temperature;BMP_pressure;BME280_temperature;BME280_humidity;BME280_pressure;Samples;Min_cycle;Max_cycle;Signal;HPM_P1;HPM_P2
2022/05/10 00:04:37;;;;;;;4.22;1.65;;;13.90;99.90;;;;;;10444086;28;20044;-58
2022/05/10 00:09:38;;;;;;;4.30;1.73;;;13.90;99.90;;;;;;10434764;28;20566;-58
2022/05/10 00:14:40;;;;;;;3.10;1.77;;;13.80;99.90;;;;;;10432220;28;20056;-58
2022/05/10 00:19:42;;;;;;;2.45;1.90;;;13.80;99.90;;;;;;10432326;28;20106;-58
2022/05/10 00:24:44;;;;;;;4.43;1.95;;;13.70;99.90;;;;;;10428612;28;20052;-58
2022/05/10 00:29:45;;;;;;;4.25;2.15;;;13.70;99.90;;;;;;10421454;28;20411;-58
2022/05/10 00:34:47;;;;;;;3.30;1.75;;;13.60;99.90;;;;;;10383884;28;20053;-58
2022/05/10 00:39:49;;;;;;;3.13;1.80;;;13.60;99.90;;;;;;10374968;28;20060;-57
2022/05/10 00:44:58;;;;;;;4.30;1.98;;;13.50;99.90;;;;;;10386525;28;20675;-58
2022/05/10 00:50:19;;;;;;;5.80;1.90;;;13.40;99.90;;;;;;10384126;28;20057;-58
2022/05/10 00:55:32;;;;;;;3.55;1.42;;;13.30;99.90;;;;;;10384911;28;20103;-58
2022/05/10 01:00:35;;;;;;;3.42;2.05;;;13.30;99.90;;;;;;10379506;28;20053;-58
2022/05/10 01:05:43;;;;;;;2.97;2.20;;;13.20;99.90;;;;;;10379608;28;20053;-57
2022/05/10 01:11:19;;;;;;;3.65;1.80;;;13.00;99.90;;;;;;10380910;28;20065;-57
2022/05/10 01:16:22;;;;;;;3.53;1.83;;;12.90;99.90;;;;;;10382187;28;20206;-57
2022/05/10 01:21:52;;;;;;;6.53;1.95;;;12.90;99.90;;;;;;10379152;28;20053;-57
2022/05/10 01:26:57;;;;;;;3.33;1.70;;;12.90;99.90;;;;;;10359064;28;20562;-58
2022/05/10 01:37:28;;;;;;;6.57;2.45;;;12.80;99.90;;;;;;10426851;28;20063;-57
2022/05/10 01:43:02;;;;;;;5.97;2.17;;;12.70;99.90;;;;;;10435576;28;20056;-57
2022/05/10 01:48:07;;;;;;;3.28;1.88;;;12.50;99.90;;;;;;10405399;28;20069;-60
2022/05/10 01:53:30;;;;;;;2.28;1.80;;;12.40;99.90;;;;;;10425341;28;20048;-60
2022/05/10 01:58:35;;;;;;;4.75;2.10;;;12.40;99.90;;;;;;10440035;28;20044;-58
2022/05/10 02:03:45;;;;;;;2.38;2.13;;;12.40;99.90;;;;;;10434358;28;20040;-57
2022/05/10 02:08:51;;;;;;;2.38;2.13;;;12.40;99.90;;;;;;10437115;28;20053;-57
2022/05/10 02:14:09;;;;;;;2.90;2.50;;;12.30;99.90;;;;;;10439069;28;20106;-57
2022/05/10 02:19:23;;;;;;;3.25;2.45;;;12.20;99.90;;;;;;10405943;28;20088;-60
2022/05/10 02:24:42;;;;;;;5.38;2.08;;;12.10;99.90;;;;;;10423623;28;20057;-58
2022/05/10 02:29:49;;;;;;;4.50;1.70;;;12.20;99.90;;;;;;10427627;28;20052;-58
2022/05/10 02:34:53;;;;;;;3.42;1.92;;;12.10;99.90;;;;;;10376881;28;20084;-58
2022/05/10 02:39:55;;;;;;;7.25;2.35;;;12.20;99.90;;;;;;10376972;28;20095;-59
2022/05/10 02:44:57;;;;;;;2.92;2.13;;;12.10;99.90;;;;;;10370149;28;20053;-59
2022/05/10 02:49:59;;;;;;;4.00;2.20;;;12.10;99.90;;;;;;10379629;28;20061;-57
2022/05/10 02:55:14;;;;;;;3.00;2.03;;;12.00;99.90;;;;;;10372543;28;20067;-58
2022/05/10 03:00:17;;;;;;;3.58;2.28;;;12.00;99.90;;;;;;10374996;28;20069;-57
2022/05/10 03:05:19;;;;;;;3.65;2.28;;;11.90;99.90;;;;;;10380117;28;20069;-58
2022/05/10 03:10:22;;;;;;;5.82;2.00;;;11.90;99.90;;;;;;10381551;28;20057;-57
2022/05/10 03:15:24;;;;;;;4.13;2.25;;;11.90;99.90;;;;;;10380717;28;20057;-57
2022/05/10 03:20:26;;;;;;;5.05;2.22;;;11.90;99.90;;;;;;10379198;28;20050;-59
2022/05/10 03:25:30;;;;;;;3.90;2.15;;;12.00;99.90;;;;;;10380426;28;20049;-57
2022/05/10 03:30:32;;;;;;;5.70;2.08;;;11.90;99.90;;;;;;10377122;28;20052;-59
2022/05/10 03:35:34;;;;;;;2.65;2.30;;;11.90;99.90;;;;;;10379539;28;20519;-59
2022/05/10 03:40:36;;;;;;;4.10;2.55;;;11.90;99.90;;;;;;10379453;28;20045;-59
2022/05/10 03:45:38;;;;;;;3.35;2.67;;;11.90;99.90;;;;;;10376410;28;20054;-57
2022/05/10 03:50:40;;;;;;;3.10;2.15;;;11.90;99.90;;;;;;10366214;28;20057;-58
2022/05/10 03:55:41;;;;;;;4.20;2.78;;;11.90;99.90;;;;;;10369661;28;20060;-59
2022/05/10 04:00:43;;;;;;;4.85;2.58;;;11.80;99.90;;;;;;10382937;28;20053;-58
2022/05/10 04:05:45;;;;;;;3.47;2.63;;;11.80;99.90;;;;;;10388398;28;21574;-59
2022/05/10 04:10:47;;;;;;;4.47;2.92;;;11.80;99.90;;;;;;10383864;28;20058;-59
2022/05/10 04:15:48;;;;;;;7.18;3.00;;;11.90;99.90;;;;;;10388146;28;20049;-58
2022/05/10 04:20:50;;;;;;;3.80;2.83;;;11.90;99.90;;;;;;10370556;28;20059;-59
2022/05/10 04:25:53;;;;;;;5.45;2.60;;;11.90;99.90;;;;;;10381635;28;20042;-58
2022/05/10 04:30:55;;;;;;;4.10;2.90;;;12.00;99.90;;;;;;10393203;28;20056;-59
2022/05/10 04:36:00;;;;;;;6.10;2.92;;;12.00;99.90;;;;;;10432406;28;20087;-58
2022/05/10 04:46:22;;;;;;;6.43;3.28;;;12.20;99.90;;;;;;10424829;28;20076;-59
2022/05/10 04:51:25;;;;;;;7.95;3.25;;;12.20;99.90;;;;;;10434684;28;20068;-59
2022/05/10 04:56:27;;;;;;;4.32;3.28;;;12.30;99.90;;;;;;10431491;28;20054;-58
2022/05/10 05:01:31;;;;;;;5.20;3.35;;;12.40;99.90;;;;;;10431958;28;20360;-59
2022/05/10 05:06:35;;;;;;;6.55;3.55;;;12.40;99.90;;;;;;10433443;28;20087;-58
2022/05/10 05:11:38;;;;;;;5.57;3.28;;;12.50;99.90;;;;;;10424056;28;20705;-59
2022/05/10 05:16:39;;;;;;;6.07;3.58;;;12.60;99.90;;;;;;10432957;28;20056;-59
2022/05/10 05:21:42;;;;;;;4.90;3.72;;;12.60;99.90;;;;;;10423273;28;20056;-60
2022/05/10 05:26:45;;;;;;;14.65;4.40;;;12.80;99.90;;;;;;10428945;28;20451;-60
2022/05/10 05:31:48;;;;;;;9.07;5.28;;;12.90;99.90;;;;;;10404516;28;20052;-60
2022/05/10 05:37:32;;;;;;;5.03;3.97;;;13.00;99.90;;;;;;10377347;28;20515;-60
2022/05/10 05:42:12;;;;;;;6.95;3.80;;;13.20;99.90;;;;;;10378124;28;20057;-59
2022/05/10 05:47:13;;;;;;;8.75;3.47;;;13.30;99.90;;;;;;10378036;28;20115;-58
2022/05/10 05:52:20;;;;;;;6.90;3.05;;;13.50;99.90;;;;;;10379271;28;20069;-60
2022/05/10 05:57:22;;;;;;;7.53;3.88;;;13.70;99.90;;;;;;10369576;28;20679;-59
2022/05/10 06:02:25;;;;;;;4.45;3.10;;;13.80;99.90;;;;;;10380647;28;20065;-58
2022/05/10 06:07:27;;;;;;;4.35;3.65;;;13.90;99.90;;;;;;10381914;28;20514;-57
2022/05/10 06:12:29;;;;;;;5.50;3.47;;;14.10;99.90;;;;;;10378351;28;20065;-59
2022/05/10 06:17:30;;;;;;;5.40;3.58;;;14.30;99.90;;;;;;10378843;28;20666;-60
2022/05/10 06:22:34;;;;;;;5.72;3.85;;;14.50;99.90;;;;;;10380868;28;20057;-59
2022/05/10 06:27:35;;;;;;;5.35;3.38;;;14.70;99.90;;;;;;10373283;28;20484;-59
2022/05/10 06:32:38;;;;;;;5.68;3.42;;;14.80;99.90;;;;;;10373003;28;20049;-59
2022/05/10 06:43:00;;;;;;;6.72;3.28;;;15.20;99.90;;;;;;10370081;28;20057;-59
2022/05/10 06:48:02;;;;;;;5.28;2.83;;;15.40;99.90;;;;;;10374373;28;20062;-59
2022/05/10 06:53:04;;;;;;;4.82;3.28;;;15.70;99.90;;;;;;10381272;28;20511;-59
2022/05/10 06:58:07;;;;;;;6.30;3.63;;;15.90;99.90;;;;;;10377033;28;20057;-59
2022/05/10 07:03:14;;;;;;;7.28;3.78;;;15.90;99.90;;;;;;10377066;28;20068;-59
2022/05/10 07:08:16;;;;;;;9.63;3.63;;;16.10;99.90;;;;;;10380700;28;20160;-60
2022/05/10 07:13:21;;;;;;;6.72;4.53;;;16.30;99.90;;;;;;10382337;28;20061;-59
2022/05/10 07:18:23;;;;;;;6.13;3.95;;;16.40;99.90;;;;;;10366707;28;20054;-59
2022/05/10 07:23:28;;;;;;;4.38;3.30;;;16.40;99.90;;;;;;10379104;28;20800;-60
2022/05/10 07:28:36;;;;;;;6.00;3.67;;;16.40;99.90;;;;;;10376712;28;20051;-60
2022/05/10 07:33:38;;;;;;;9.60;3.70;;;16.50;99.90;;;;;;10400811;28;20057;-59
2022/05/10 07:38:40;;;;;;;5.00;3.92;;;16.60;99.90;;;;;;10416604;28;20044;-61
2022/05/10 07:43:42;;;;;;;8.00;3.33;;;16.80;99.90;;;;;;10425076;28;20056;-60
2022/05/10 07:48:44;;;;;;;6.60;3.85;;;16.90;99.90;;;;;;10426254;28;20045;-61
2022/05/10 07:53:46;;;;;;;6.93;3.22;;;17.20;99.90;;;;;;10423958;28;20608;-60
2022/05/10 07:58:48;;;;;;;8.93;3.60;;;17.40;98.90;;;;;;10429942;28;20049;-60
2022/05/10 08:03:50;;;;;;;8.00;3.65;;;17.50;98.50;;;;;;10431546;28;20052;-60
2022/05/10 08:08:51;;;;;;;10.23;4.32;;;17.80;99.90;;;;;;10429093;28;20041;-60
2022/05/10 08:13:53;;;;;;;5.50;3.92;;;17.90;97.40;;;;;;10426414;28;20044;-59
2022/05/10 08:18:55;;;;;;;7.05;3.80;;;18.10;96.50;;;;;;10424608;28;20049;-60
2022/05/10 08:23:57;;;;;;;5.05;4.00;;;18.30;97.30;;;;;;10417639;28;20570;-59
2022/05/10 08:28:58;;;;;;;12.02;3.88;;;18.70;94.30;;;;;;10425424;28;20052;-59
2022/05/10 08:34:00;;;;;;;7.70;4.10;;;18.90;93.20;;;;;;10384691;28;20147;-59
2022/05/10 08:39:02;;;;;;;7.18;3.67;;;19.30;91.80;;;;;;10384277;28;20084;-59
2022/05/10 08:44:13;;;;;;;9.98;4.25;;;19.40;90.90;;;;;;10382300;28;21150;-59
2022/05/10 08:49:20;;;;;;;10.80;3.42;;;19.80;90.70;;;;;;10378482;28;20045;-59
2022/05/10 08:54:22;;;;;;;10.40;4.25;;;20.20;90.50;;;;;;10383089;28;20057;-60
2022/05/10 08:59:56;;;;;;;7.32;3.95;;;20.40;89.30;;;;;;10385061;28;20050;-59
2022/05/10 09:05:14;;;;;;;4.43;3.50;;;20.60;86.00;;;;;;10357207;28;20061;-59
2022/05/10 09:10:43;;;;;;;6.75;4.65;;;20.80;84.80;;;;;;10384783;28;20195;-57
2022/05/10 09:15:59;;;;;;;7.57;3.15;;;20.90;88.80;;;;;;10376800;28;20401;-58
2022/05/10 09:21:07;;;;;;;5.43;3.85;;;21.10;86.80;;;;;;10379567;28;20065;-60
2022/05/10 09:26:12;;;;;;;6.20;3.58;;;21.30;80.50;;;;;;10380843;28;20061;-58
2022/05/10 09:37:45;;;;;;;5.25;4.00;;;21.60;72.80;;;;;;10431281;28;20053;-60
2022/05/10 09:42:50;;;;;;;4.85;3.80;;;21.80;70.50;;;;;;10427555;28;20065;-59
2022/05/10 09:47:54;;;;;;;6.75;3.15;;;22.00;70.00;;;;;;10426370;28;20053;-61
2022/05/10 09:53:42;;;;;;;6.38;2.70;;;22.10;69.70;;;;;;10424371;28;20055;-59
2022/05/10 09:58:54;;;;;;;4.85;2.90;;;22.50;70.50;;;;;;10422275;28;20103;-60
2022/05/10 10:04:22;;;;;;;4.45;2.67;;;22.70;66.30;;;;;;10417302;28;20052;-60
2022/05/10 10:09:33;;;;;;;5.55;2.72;;;23.00;66.40;;;;;;10418076;28;20061;-59
2022/05/10 10:14:43;;;;;;;4.40;2.50;;;22.90;65.80;;;;;;10420994;28;20045;-59
2022/05/10 10:20:08;;;;;;;3.88;2.47;;;23.20;66.20;;;;;;10421481;28;20057;-60
2022/05/10 10:25:20;;;;;;;4.10;2.43;;;23.50;64.10;;;;;;10364202;28;20102;-60
2022/05/10 10:30:38;;;;;;;5.53;2.25;;;23.50;63.30;;;;;;10421349;28;20103;-59
2022/05/10 10:35:47;;;;;;;3.58;2.13;;;24.10;61.90;;;;;;10373811;28;20045;-59
2022/05/10 10:41:15;;;;;;;4.63;2.67;;;24.40;60.10;;;;;;10383283;28;20440;-59
2022/05/10 10:46:24;;;;;;;10.02;2.65;;;24.60;59.70;;;;;;10373168;28;20061;-59
2022/05/10 10:51:30;;;;;;;3.80;2.80;;;24.90;59.30;;;;;;10375354;28;20140;-59
2022/05/10 10:56:46;;;;;;;2.95;2.20;;;24.70;58.70;;;;;;10374740;28;20062;-59
2022/05/10 11:01:59;;;;;;;3.95;2.10;;;24.90;59.80;;;;;;10378032;28;20133;-59
2022/05/10 11:07:15;;;;;;;3.75;2.40;;;24.60;59.60;;;;;;10381532;28;20116;-60
2022/05/10 11:12:31;;;;;;;8.23;2.13;;;24.70;60.40;;;;;;10382628;28;20112;-60
2022/05/10 11:18:12;;;;;;;3.03;2.50;;;24.80;59.80;;;;;;10384522;28;20057;-60
2022/05/10 11:23:33;;;;;;;3.60;2.60;;;24.60;59.70;;;;;;10388190;28;20060;-60
2022/05/10 11:28:40;;;;;;;3.10;2.28;;;25.00;58.70;;;;;;10383425;28;20080;-60
2022/05/10 11:33:53;;;;;;;4.43;2.17;;;24.80;59.30;;;;;;10383464;28;20053;-60
2022/05/10 11:39:03;;;;;;;3.00;2.10;;;25.20;59.50;;;;;;10386230;28;20108;-60
2022/05/10 11:44:47;;;;;;;4.78;2.75;;;25.60;59.20;;;;;;10384902;28;20053;-60
2022/05/10 11:50:21;;;;;;;8.40;2.72;;;25.40;58.60;;;;;;10352741;28;20065;-60
2022/05/10 11:55:51;;;;;;;3.58;2.35;;;25.50;59.30;;;;;;10384888;28;20041;-59
2022/05/10 12:00:55;;;;;;;5.40;2.47;;;25.50;58.70;;;;;;10382143;28;20049;-58
2022/05/10 12:06:23;;;;;;;3.22;2.17;;;25.60;58.50;;;;;;10364634;28;20059;-59
2022/05/10 12:11:27;;;;;;;3.80;1.88;;;25.90;56.50;;;;;;10382013;28;20060;-59
2022/05/10 12:22:00;;;;;;;1.80;1.42;;;26.20;55.80;;;;;;10387120;28;20447;-60
2022/05/10 12:27:08;;;;;;;5.95;1.92;;;26.10;55.40;;;;;;10381686;28;20057;-60
2022/05/10 12:32:20;;;;;;;2.88;1.67;;;26.10;54.70;;;;;;10385159;28;20064;-58
2022/05/10 12:37:25;;;;;;;2.15;1.58;;;26.20;51.90;;;;;;10384545;28;20045;-58
2022/05/10 12:42:37;;;;;;;7.25;1.60;;;25.90;52.30;;;;;;10380517;28;20050;-59
2022/05/10 12:47:55;;;;;;;2.00;1.67;;;25.70;54.70;;;;;;10380438;28;20115;-59
2022/05/10 12:52:57;;;;;;;2.63;1.27;;;25.80;55.40;;;;;;10378321;28;20053;-59
2022/05/10 12:58:15;;;;;;;5.03;1.38;;;26.00;51.80;;;;;;10384566;28;20053;-59
2022/05/10 13:03:22;;;;;;;3.70;1.40;;;26.00;50.20;;;;;;10381530;28;20119;-59
2022/05/10 13:09:07;;;;;;;2.22;1.50;;;25.90;51.70;;;;;;10382125;28;20041;-59
2022/05/10 13:14:11;;;;;;;2.13;1.70;;;26.10;52.30;;;;;;10379766;28;20388;-59
2022/05/10 13:19:13;;;;;;;2.20;1.80;;;26.10;54.00;;;;;;10382174;28;20053;-58
2022/05/10 13:24:19;;;;;;;4.55;2.38;;;26.10;54.20;;;;;;10379680;28;20042;-59
2022/05/10 13:29:50;;;;;;;3.47;1.67;;;26.00;54.10;;;;;;10381538;28;20499;-59
2022/05/10 13:34:53;;;;;;;4.00;2.20;;;26.10;54.20;;;;;;10382224;28;20484;-58
2022/05/10 13:39:59;;;;;;;3.35;1.77;;;26.30;54.20;;;;;;10383135;28;20068;-59
2022/05/10 13:45:01;;;;;;;;;;;26.40;54.70;;;;;;10366662;28;20061;-59
2022/05/10 13:50:04;;;;;;;3.60;2.20;;;26.20;54.20;;;;;;10379344;28;19928;-59
2022/05/10 13:55:14;;;;;;;8.98;1.90;;;26.30;54.00;;;;;;10381108;28;20514;-60
2022/05/10 14:00:26;;;;;;;5.05;1.98;;;26.20;54.60;;;;;;10352663;28;20373;-58
2022/05/10 14:05:29;;;;;;;6.20;2.50;;;26.00;53.40;;;;;;10378477;28;20057;-59
2022/05/10 14:10:36;;;;;;;2.53;2.10;;;26.20;53.80;;;;;;10384468;28;20049;-60
2022/05/10 14:15:44;;;;;;;6.45;2.15;;;26.10;53.80;;;;;;10381647;28;20072;-59
2022/05/10 14:20:48;;;;;;;3.63;2.10;;;26.30;53.80;;;;;;10381657;28;20119;-60
2022/05/10 14:25:53;;;;;;;3.97;2.72;;;26.10;54.40;;;;;;10380905;28;20045;-59
2022/05/10 14:30:55;;;;;;;12.67;2.67;;;26.10;55.10;;;;;;10379831;28;20068;-59
2022/05/10 14:36:04;;;;;;;3.58;1.90;;;26.20;54.70;;;;;;10369672;28;20057;-60
2022/05/10 14:41:08;;;;;;;2.63;1.90;;;26.20;54.80;;;;;;10376227;28;20057;-60
2022/05/10 14:46:31;;;;;;;5.75;2.42;;;26.30;54.30;;;;;;10378305;28;20064;-59
2022/05/10 14:51:35;;;;;;;6.00;2.47;;;26.20;55.10;;;;;;10355145;28;20049;-59
2022/05/10 14:56:53;;;;;;;6.30;1.77;;;26.00;54.30;;;;;;10376831;28;20061;-59
2022/05/10 15:01:54;;;;;;;4.85;2.28;;;26.10;54.90;;;;;;10377343;28;20068;-58
2022/05/10 15:06:57;;;;;;;1.67;1.55;;;25.90;55.10;;;;;;10376732;28;20143;-59
2022/05/10 15:17:19;;;;;;;13.02;4.13;;;25.70;56.00;;;;;;10378344;28;20050;-62
2022/05/10 15:22:21;;;;;;;7.10;2.42;;;26.00;55.20;;;;;;10376243;28;20057;-60
2022/05/10 15:27:23;;;;;;;3.35;2.22;;;25.80;54.80;;;;;;10373452;28;20053;-61
2022/05/10 15:32:25;;;;;;;4.35;1.88;;;25.70;55.90;;;;;;10371758;28;20060;-61
2022/05/10 15:37:27;;;;;;;2.85;1.63;;;25.70;56.00;;;;;;10377753;28;20061;-61
2022/05/10 15:42:31;;;;;;;1.77;1.50;;;25.70;53.10;;;;;;10377470;28;20050;-61
2022/05/10 15:47:36;;;;;;;3.17;1.77;;;25.50;53.10;;;;;;10360903;28;20054;-61
2022/05/10 15:52:38;;;;;;;1.80;1.37;;;25.60;54.10;;;;;;10377817;28;20064;-61
2022/05/10 15:57:40;;;;;;;3.72;2.05;;;25.50;52.50;;;;;;10384353;28;20056;-60
2022/05/10 16:02:43;;;;;;;1.90;1.58;;;25.50;51.40;;;;;;10385840;28;20107;-59
2022/05/10 16:07:46;;;;;;;2.33;1.02;;;25.40;51.50;;;;;;10384918;28;20053;-61
2022/05/10 16:12:47;;;;;;;2.42;1.63;;;25.30;50.30;;;;;;10384708;28;20061;-60
2022/05/10 16:17:49;;;;;;;1.30;0.95;;;25.40;50.50;;;;;;10371056;28;20061;-60
2022/05/10 16:22:56;;;;;;;1.55;0.88;;;25.30;49.60;;;;;;10376003;28;20041;-60
2022/05/10 16:33:23;;;;;;;1.85;1.00;;;25.10;49.40;;;;;;10420308;28;20067;-60
2022/05/10 16:38:25;;;;;;;4.00;0.95;;;25.10;49.20;;;;;;10435764;28;20056;-59
2022/05/10 16:43:27;;;;;;;2.90;0.77;;;25.00;50.00;;;;;;10437320;28;20119;-60
2022/05/10 16:48:29;;;;;;;2.75;0.73;;;25.00;50.60;;;;;;10429346;28;20062;-60
2022/05/10 16:53:31;;;;;;;4.65;0.90;;;24.80;49.70;;;;;;10426551;28;20057;-60
2022/05/10 16:58:32;;;;;;;1.50;0.80;;;24.70;48.80;;;;;;10430010;28;20056;-59
2022/05/10 17:03:36;;;;;;;3.15;0.90;;;24.70;48.70;;;;;;10437972;28;20048;-60
2022/05/10 17:08:38;;;;;;;1.02;0.82;;;24.60;48.40;;;;;;10423570;28;20053;-61
2022/05/10 17:13:39;;;;;;;6.82;1.00;;;24.60;49.00;;;;;;10432873;28;20048;-59
2022/05/10 17:18:41;;;;;;;2.42;1.00;;;24.80;48.80;;;;;;10433071;28;20118;-58
2022/05/10 17:23:43;;;;;;;4.25;0.88;;;24.90;48.90;;;;;;10423320;28;20041;-59
2022/05/10 17:28:58;;;;;;;2.67;0.60;;;25.30;48.80;;;;;;10428547;28;20057;-59
2022/05/10 17:34:06;;;;;;;2.38;0.80;;;25.40;48.10;;;;;;10382276;28;20061;-59
2022/05/10 17:39:09;;;;;;;2.17;0.90;;;25.30;48.20;;;;;;10383261;28;20053;-59
2022/05/10 17:44:11;;;;;;;2.30;1.00;;;25.50;48.30;;;;;;10381855;28;20061;-59
2022/05/10 17:49:12;;;;;;;2.92;0.80;;;25.20;49.00;;;;;;10384097;28;20057;-59
2022/05/10 17:54:15;;;;;;;3.58;0.80;;;25.10;49.60;;;;;;10379452;28;20041;-58
2022/05/10 17:59:17;;;;;;;1.52;0.80;;;25.00;49.90;;;;;;10376877;28;20124;-59
2022/05/10 18:04:18;;;;;;;3.15;0.93;;;24.80;50.30;;;;;;10376947;28;20061;-58
2022/05/10 18:09:20;;;;;;;2.83;1.13;;;24.60;50.90;;;;;;10363645;28;20111;-59
2022/05/10 18:14:22;;;;;;;1.50;0.80;;;24.60;51.80;;;;;;10378201;28;20124;-59
2022/05/10 18:19:24;;;;;;;3.03;1.02;;;24.50;51.30;;;;;;10379941;28;20466;-59
2022/05/10 18:24:25;;;;;;;2.28;0.98;;;24.40;51.40;;;;;;10376568;28;20515;-60
2022/05/10 18:29:27;;;;;;;1.40;0.80;;;24.20;52.10;;;;;;10377668;28;20064;-59
2022/05/10 18:34:29;;;;;;;3.15;1.00;;;24.10;52.60;;;;;;10429337;28;20483;-59
2022/05/10 18:39:31;;;;;;;2.47;0.90;;;24.00;53.70;;;;;;10426196;28;20049;-60
2022/05/10 18:44:33;;;;;;;3.30;1.00;;;23.80;53.80;;;;;;10431471;28;20686;-59
2022/05/10 18:49:35;;;;;;;1.05;0.95;;;23.80;54.70;;;;;;10405660;28;20122;-58
2022/05/10 18:54:37;;;;;;;2.85;0.98;;;23.60;55.00;;;;;;10425141;28;20080;-60
2022/05/10 18:59:38;;;;;;;3.22;1.30;;;23.50;55.60;;;;;;10430805;28;20045;-61
2022/05/10 19:04:40;;;;;;;2.15;0.82;;;23.30;56.40;;;;;;10440524;28;20067;-60
2022/05/10 19:09:42;;;;;;;3.45;1.13;;;23.00;56.60;;;;;;10443313;28;20082;-60
2022/05/10 19:14:43;;;;;;;4.85;1.05;;;22.90;56.80;;;;;;10431448;28;20053;-60
2022/05/10 19:19:45;;;;;;;1.65;1.13;;;22.70;57.30;;;;;;10418374;28;20049;-60
2022/05/10 19:24:48;;;;;;;2.90;1.10;;;22.50;58.50;;;;;;10438728;28;20107;-60
2022/05/10 19:29:50;;;;;;;2.50;1.27;;;22.40;59.80;;;;;;10426951;28;20057;-58
2022/05/10 19:34:52;;;;;;;4.85;1.60;;;22.20;61.50;;;;;;10379452;28;20130;-58
2022/05/10 19:39:53;;;;;;;3.60;1.98;;;21.90;63.40;;;;;;10384575;28;20061;-58
2022/05/10 19:44:55;;;;;;;6.30;2.47;;;21.80;65.10;;;;;;10387046;28;20065;-59
2022/05/10 19:49:59;;;;;;;8.88;3.03;;;21.60;66.60;;;;;;10385335;28;20127;-57
2022/05/10 19:55:02;;;;;;;9.60;3.47;;;21.50;68.00;;;;;;10385822;28;20116;-58
2022/05/10 20:00:07;;;;;;;7.65;3.17;;;21.30;68.70;;;;;;10385876;28;20087;-58
2022/05/10 20:05:25;;;;;;;5.45;2.97;;;21.20;69.80;;;;;;10383732;28;20116;-58
2022/05/10 20:10:29;;;;;;;4.85;2.92;;;21.10;71.00;;;;;;10383590;28;20049;-58
2022/05/10 20:15:36;;;;;;;9.35;4.40;;;20.90;72.10;;;;;;10383918;28;20042;-59
2022/05/10 20:20:41;;;;;;;6.63;3.17;;;20.80;72.40;;;;;;10372029;28;20045;-59
2022/05/10 20:25:43;;;;;;;7.22;3.13;;;20.80;73.20;;;;;;10384836;28;20058;-58
2022/05/10 20:30:46;;;;;;;6.22;3.17;;;20.70;73.70;;;;;;10377267;28;20702;-58
2022/05/10 20:35:48;;;;;;;7.57;3.22;;;20.60;75.10;;;;;;10380306;28;20124;-58
2022/05/10 20:40:50;;;;;;;6.75;3.40;;;20.50;75.80;;;;;;10381101;28;20049;-58
2022/05/10 20:45:52;;;;;;;3.42;2.67;;;20.50;77.50;;;;;;10379445;28;20049;-59
2022/05/10 20:50:56;;;;;;;7.78;3.33;;;20.30;80.40;;;;;;10373832;28;20049;-60
2022/05/10 20:55:58;;;;;;;7.97;3.78;;;20.20;81.50;;;;;;10383077;28;20057;-57
2022/05/10 21:01:00;;;;;;;7.63;3.60;;;20.10;81.30;;;;;;10382708;28;20068;-58
2022/05/10 21:06:02;;;;;;;4.93;3.88;;;20.00;82.90;;;;;;10376937;28;20052;-59
2022/05/10 21:11:12;;;;;;;7.20;4.40;;;19.90;86.20;;;;;;10383596;28;20053;-58
2022/05/10 21:16:14;;;;;;;8.55;3.15;;;19.70;86.30;;;;;;10366020;28;20107;-58
2022/05/10 21:21:15;;;;;;;5.45;3.35;;;19.60;88.40;;;;;;10380180;28;20053;-58
2022/05/10 21:26:17;;;;;;;9.85;3.13;;;19.50;89.00;;;;;;10353888;28;20057;-58
2022/05/10 21:31:20;;;;;;;3.92;3.22;;;19.40;89.50;;;;;;10380127;28;20111;-58
2022/05/10 21:36:25;;;;;;;3.40;2.63;;;19.30;90.20;;;;;;10382867;28;20054;-59
2022/05/10 21:41:27;;;;;;;3.72;2.83;;;19.10;90.50;;;;;;10372293;28;20050;-59
2022/05/10 21:46:29;;;;;;;4.15;2.28;;;19.10;91.40;;;;;;10379808;28;20045;-58
2022/05/10 21:51:31;;;;;;;3.90;2.58;;;18.90;90.90;;;;;;10381643;28;20049;-59
2022/05/10 21:56:32;;;;;;;3.67;2.40;;;18.80;91.40;;;;;;10367909;28;20068;-59
2022/05/10 22:01:34;;;;;;;3.55;2.10;;;18.70;92.30;;;;;;10378970;28;20049;-59
2022/05/10 22:06:36;;;;;;;4.60;2.58;;;18.70;92.40;;;;;;10380897;28;20639;-58
2022/05/10 22:11:39;;;;;;;4.43;2.60;;;18.50;92.70;;;;;;10384096;28;20111;-58
2022/05/10 22:16:41;;;;;;;4.38;2.28;;;18.60;91.60;;;;;;10378978;28;20053;-59
2022/05/10 22:21:42;;;;;;;3.05;1.77;;;18.50;91.60;;;;;;10380592;28;20184;-59
2022/05/10 22:26:45;;;;;;;6.25;2.20;;;18.60;91.00;;;;;;10379886;28;20057;-59
2022/05/10 22:31:46;;;;;;;3.15;1.50;;;18.60;90.90;;;;;;10380318;28;20048;-59
2022/05/10 22:36:48;;;;;;;6.43;2.50;;;18.60;90.90;;;;;;10380603;28;20147;-59
2022/05/10 22:41:50;;;;;;;4.60;2.50;;;18.50;92.10;;;;;;10379502;28;20064;-59
2022/05/10 22:46:51;;;;;;;4.55;2.78;;;18.40;92.20;;;;;;10379436;28;20650;-58
2022/05/10 22:51:53;;;;;;;3.05;2.13;;;18.40;92.10;;;;;;10378134;28;20424;-59
2022/05/10 22:56:55;;;;;;;5.15;2.42;;;18.30;92.40;;;;;;10376202;28;20115;-59
2022/05/10 23:01:57;;;;;;;3.72;2.08;;;18.30;92.90;;;;;;10382387;28;20045;-59
2022/05/10 23:06:58;;;;;;;6.93;2.38;;;18.20;93.70;;;;;;10368457;28;20060;-59
2022/05/10 23:12:02;;;;;;;5.15;2.67;;;18.20;94.20;;;;;;10386534;28;20057;-60
2022/05/10 23:17:05;;;;;;;3.88;2.25;;;18.20;94.30;;;;;;10390518;28;20060;-59
2022/05/10 23:22:09;;;;;;;5.70;2.03;;;18.20;94.60;;;;;;10386302;28;20111;-59
2022/05/10 23:27:11;;;;;;;6.13;2.60;;;18.20;94.80;;;;;;10388896;28;20064;-59
2022/05/10 23:32:13;;;;;;;4.03;1.92;;;18.20;95.00;;;;;;10387272;28;20056;-59
2022/05/10 23:37:15;;;;;;;6.15;2.78;;;18.20;95.20;;;;;;10388555;28;20136;-59
2022/05/10 23:42:17;;;;;;;3.45;2.58;;;18.20;95.00;;;;;;10388566;28;20057;-59
2022/05/10 23:47:19;;;;;;;5.40;2.55;;;18.20;95.20;;;;;;10371819;28;20067;-59
2022/05/10 23:52:20;;;;;;;3.60;2.40;;;18.20;95.00;;;;;;10376827;28;20049;-59
2022/05/10 23:57:22;;;;;;;7.05;2.47;;;18.20;95.20;;;;;;10388761;28;20119;-59
